sensor_id;sensor_type;location;lat;lon;timestamp;P1;durP1;ratioP1;P2;durP2;ratioP2
32451;SDS011;45528;52.102;5.242;2022-12-29T00:01:34;3.1;;;1.7;;
32451;SDS011;45528;52.102;5.242;2022-12-29T00:04:48;2.21;;;1.5;;
32451;SDS011;45528;52.102;5.242;2022-12-29T00:06:25;4.91;;;2.31;;
32451;SDS011;45528;52.102;5.242;2022-12-29T00:08:03;3.5;;;1.9;;
32451;SDS011;45528;52.102;5.242;2022-12-29T00:09:39;3.2;;;1.6;;
32451;SDS011;45528;52.102;5.242;2022-12-29T00:12:55;2.7;;;1.7;;
32451;SDS011;45528;52.102;5.242;2022-12-29T00:14:31;2.8;;;1.7;;
32451;SDS011;45528;52.102;5.242;2022-12-29T00:16:08;2.6;;;1.5;;
32451;SDS011;45528;52.102;5.242;2022-12-29T00:19:20;2.9;;;1.6;;
32451;SDS011;45528;52.102;5.242;2022-12-29T00:20:56;3.9;;;1.9;;
32451;SDS011;45528;52.102;5.242;2022-12-29T00:22:32;3.9;;;1.9;;
32451;SDS011;45528;52.102;5.242;2022-12-29T00:25:50;2.8;;;1.7;;
32451;SDS011;45528;52.102;5.242;2022-12-29T00:27:26;2.4;;;1.5;;
32451;SDS011;45528;52.102;5.242;2022-12-29T00:29:03;2.0;;;1.5;;
32451;SDS011;45528;52.102;5.242;2022-12-29T00:30:39;3.4;;;1.7;;
32451;SDS011;45528;52.102;5.242;2022-12-29T00:33:52;2.8;;;1.6;;
32451;SDS011;45528;52.102;5.242;2022-12-29T00:35:29;2.8;;;1.6;;
32451;SDS011;45528;52.102;5.242;2022-12-29T00:37:12;3.0;;;1.6;;
32451;SDS011;45528;52.102;5.242;2022-12-29T00:40:30;2.7;;;1.7;;
32451;SDS011;45528;52.102;5.242;2022-12-29T00:42:07;2.9;;;1.6;;
32451;SDS011;45528;52.102;5.242;2022-12-29T00:43:45;3.7;;;1.7;;
32451;SDS011;45528;52.102;5.242;2022-12-29T00:45:21;2.31;;;1.4;;
32451;SDS011;45528;52.102;5.242;2022-12-29T00:48:33;1.7;;;1.2;;
32451;SDS011;45528;52.102;5.242;2022-12-29T00:50:09;2.31;;;1.6;;
32451;SDS011;45528;52.102;5.242;2022-12-29T00:51:46;3.2;;;1.3;;
32451;SDS011;45528;52.102;5.242;2022-12-29T00:54:59;2.21;;;1.5;;
32451;SDS011;45528;52.102;5.242;2022-12-29T00:56:35;2.6;;;1.4;;
32451;SDS011;45528;52.102;5.242;2022-12-29T00:58:13;2.6;;;1.4;;
32451;SDS011;45528;52.102;5.242;2022-12-29T00:59:49;4.8;;;1.7;;
32451;SDS011;45528;52.102;5.242;2022-12-29T01:03:02;2.9;;;1.4;;
32451;SDS011;45528;52.102;5.242;2022-12-29T01:04:38;2.6;;;1.3;;
32451;SDS011;45528;52.102;5.242;2022-12-29T01:06:14;2.7;;;1.2;;
32451;SDS011;45528;52.102;5.242;2022-12-29T01:09:27;3.2;;;1.3;;
32451;SDS011;45528;52.102;5.242;2022-12-29T01:11:03;1.7;;;1.11;;
32451;SDS011;45528;52.102;5.242;2022-12-29T01:12:42;2.7;;;1.2;;
32451;SDS011;45528;52.102;5.242;2022-12-29T01:15:55;2.4;;;1.2;;
32451;SDS011;45528;52.102;5.242;2022-12-29T01:17:33;3.3;;;1.3;;
32451;SDS011;45528;52.102;5.242;2022-12-29T01:19:10;4.1;;;1.2;;
32451;SDS011;45528;52.102;5.242;2022-12-29T01:20:47;2.21;;;1.2;;
32451;SDS011;45528;52.102;5.242;2022-12-29T01:24:00;2.21;;;1.4;;
32451;SDS011;45528;52.102;5.242;2022-12-29T01:25:36;5.0;;;1.6;;
32451;SDS011;45528;52.102;5.242;2022-12-29T01:27:14;2.1;;;1.2;;
32451;SDS011;45528;52.102;5.242;2022-12-29T01:30:26;2.1;;;1.2;;
32451;SDS011;45528;52.102;5.242;2022-12-29T01:32:02;2.0;;;1.3;;
32451;SDS011;45528;52.102;5.242;2022-12-29T01:33:39;2.9;;;1.2;;
32451;SDS011;45528;52.102;5.242;2022-12-29T01:36:55;1.4;;;1.0;;
32451;SDS011;45528;52.102;5.242;2022-12-29T01:38:31;4.1;;;1.2;;
32451;SDS011;45528;52.102;5.242;2022-12-29T01:40:09;2.1;;;1.2;;
32451;SDS011;45528;52.102;5.242;2022-12-29T01:41:46;3.2;;;1.2;;
32451;SDS011;45528;52.102;5.242;2022-12-29T01:45:16;2.0;;;1.2;;
32451;SDS011;45528;52.102;5.242;2022-12-29T01:46:53;1.9;;;1.0;;
32451;SDS011;45528;52.102;5.242;2022-12-29T01:48:30;2.0;;;1.3;;
32451;SDS011;45528;52.102;5.242;2022-12-29T01:50:08;3.5;;;1.4;;
32451;SDS011;45528;52.102;5.242;2022-12-29T01:53:34;2.21;;;1.2;;
32451;SDS011;45528;52.102;5.242;2022-12-29T01:55:12;1.5;;;1.11;;
32451;SDS011;45528;52.102;5.242;2022-12-29T01:56:49;2.9;;;1.2;;
32451;SDS011;45528;52.102;5.242;2022-12-29T01:58:28;2.1;;;1.4;;
32451;SDS011;45528;52.102;5.242;2022-12-29T02:01:49;2.8;;;1.3;;
32451;SDS011;45528;52.102;5.242;2022-12-29T02:03:26;2.0;;;1.2;;
32451;SDS011;45528;52.102;5.242;2022-12-29T02:05:07;2.4;;;1.11;;
32451;SDS011;45528;52.102;5.242;2022-12-29T02:06:51;2.4;;;1.4;;
32451;SDS011;45528;52.102;5.242;2022-12-29T02:10:08;2.6;;;1.2;;
32451;SDS011;45528;52.102;5.242;2022-12-29T02:11:44;1.8;;;1.2;;
32451;SDS011;45528;52.102;5.242;2022-12-29T02:15:00;2.0;;;1.3;;
32451;SDS011;45528;52.102;5.242;2022-12-29T02:16:43;2.5;;;1.2;;
32451;SDS011;45528;52.102;5.242;2022-12-29T02:18:37;2.7;;;1.3;;
32451;SDS011;45528;52.102;5.242;2022-12-29T02:20:47;2.1;;;1.11;;
32451;SDS011;45528;52.102;5.242;2022-12-29T02:24:06;4.8;;;1.2;;
32451;SDS011;45528;52.102;5.242;2022-12-29T02:27:23;3.3;;;1.2;;
32451;SDS011;45528;52.102;5.242;2022-12-29T02:30:52;3.4;;;1.0;;
32451;SDS011;45528;52.102;5.242;2022-12-29T02:32:41;2.31;;;1.0;;
32451;SDS011;45528;52.102;5.242;2022-12-29T02:34:27;1.6;;;0.9;;
32451;SDS011;45528;52.102;5.242;2022-12-29T02:36:20;3.1;;;0.9;;
32451;SDS011;45528;52.102;5.242;2022-12-29T02:39:56;2.7;;;1.0;;
32451;SDS011;45528;52.102;5.242;2022-12-29T02:41:42;2.1;;;0.9;;
32451;SDS011;45528;52.102;5.242;2022-12-29T02:43:39;2.21;;;0.8;;
32451;SDS011;45528;52.102;5.242;2022-12-29T02:45:30;2.7;;;0.7;;
32451;SDS011;45528;52.102;5.242;2022-12-29T02:47:15;2.6;;;0.8;;
32451;SDS011;45528;52.102;5.242;2022-12-29T02:49:01;2.21;;;0.9;;
32451;SDS011;45528;52.102;5.242;2022-12-29T02:50:47;3.6;;;0.8;;
32451;SDS011;45528;52.102;5.242;2022-12-29T02:54:16;3.1;;;0.7;;
32451;SDS011;45528;52.102;5.242;2022-12-29T02:55:53;3.0;;;0.6;;
32451;SDS011;45528;52.102;5.242;2022-12-29T02:57:31;3.4;;;0.7;;
32451;SDS011;45528;52.102;5.242;2022-12-29T02:59:08;2.9;;;0.5;;
32451;SDS011;45528;52.102;5.242;2022-12-29T03:02:58;2.8;;;0.8;;
32451;SDS011;45528;52.102;5.242;2022-12-29T03:04:53;2.4;;;0.5;;
32451;SDS011;45528;52.102;5.242;2022-12-29T03:06:54;3.4;;;0.6;;
32451;SDS011;45528;52.102;5.242;2022-12-29T03:08:42;2.6;;;0.7;;
32451;SDS011;45528;52.102;5.242;2022-12-29T03:10:28;2.5;;;0.7;;
32451;SDS011;45528;52.102;5.242;2022-12-29T03:12:17;2.0;;;0.6;;
32451;SDS011;45528;52.102;5.242;2022-12-29T03:14:07;1.8;;;0.6;;
32451;SDS011;45528;52.102;5.242;2022-12-29T03:15:54;2.6;;;0.8;;
32451;SDS011;45528;52.102;5.242;2022-12-29T03:19:26;2.5;;;0.6;;
32451;SDS011;45528;52.102;5.242;2022-12-29T03:21:08;2.5;;;0.5;;
32451;SDS011;45528;52.102;5.242;2022-12-29T03:22:50;3.1;;;0.7;;
32451;SDS011;45528;52.102;5.242;2022-12-29T03:24:34;1.9;;;0.7;;
32451;SDS011;45528;52.102;5.242;2022-12-29T03:26:26;1.7;;;0.5;;
32451;SDS011;45528;52.102;5.242;2022-12-29T03:29:46;2.7;;;0.5;;
32451;SDS011;45528;52.102;5.242;2022-12-29T03:31:25;3.4;;;0.6;;
32451;SDS011;45528;52.102;5.242;2022-12-29T03:33:03;3.3;;;0.7;;
32451;SDS011;45528;52.102;5.242;2022-12-29T03:34:45;5.11;;;0.8;;
32451;SDS011;45528;52.102;5.242;2022-12-29T03:38:13;4.1;;;0.6;;
32451;SDS011;45528;52.102;5.242;2022-12-29T03:39:54;2.0;;;0.6;;
32451;SDS011;45528;52.102;5.242;2022-12-29T03:41:31;3.3;;;0.8;;
32451;SDS011;45528;52.102;5.242;2022-12-29T03:43:09;2.7;;;0.5;;
32451;SDS011;45528;52.102;5.242;2022-12-29T03:46:29;2.7;;;0.8;;
32451;SDS011;45528;52.102;5.242;2022-12-29T03:48:06;1.9;;;0.6;;
32451;SDS011;45528;52.102;5.242;2022-12-29T03:49:42;3.4;;;0.8;;
32451;SDS011;45528;52.102;5.242;2022-12-29T03:52:59;2.4;;;0.7;;
32451;SDS011;45528;52.102;5.242;2022-12-29T03:54:35;3.8;;;1.0;;
32451;SDS011;45528;52.102;5.242;2022-12-29T03:56:11;4.2;;;0.9;;
32451;SDS011;45528;52.102;5.242;2022-12-29T04:00:59;3.1;;;0.7;;
32451;SDS011;45528;52.102;5.242;2022-12-29T04:02:36;3.5;;;0.8;;
32451;SDS011;45528;52.102;5.242;2022-12-29T04:04:12;3.2;;;0.8;;
32451;SDS011;45528;52.102;5.242;2022-12-29T04:07:25;2.8;;;0.9;;
32451;SDS011;45528;52.102;5.242;2022-12-29T04:09:02;6.0;;;1.0;;
32451;SDS011;45528;52.102;5.242;2022-12-29T04:10:39;4.5;;;1.0;;
32451;SDS011;45528;52.102;5.242;2022-12-29T04:13:52;4.7;;;1.0;;
32451;SDS011;45528;52.102;5.242;2022-12-29T04:15:28;2.8;;;0.9;;
32451;SDS011;45528;52.102;5.242;2022-12-29T04:17:05;3.8;;;0.9;;
32451;SDS011;45528;52.102;5.242;2022-12-29T04:18:42;4.61;;;0.9;;
32451;SDS011;45528;52.102;5.242;2022-12-29T04:21:55;4.41;;;1.0;;
32451;SDS011;45528;52.102;5.242;2022-12-29T04:25:10;4.61;;;1.2;;
32451;SDS011;45528;52.102;5.242;2022-12-29T04:28:23;4.1;;;0.9;;
32451;SDS011;45528;52.102;5.242;2022-12-29T04:30:00;4.2;;;1.0;;
32451;SDS011;45528;52.102;5.242;2022-12-29T04:31:36;5.0;;;1.11;;
32451;SDS011;45528;52.102;5.242;2022-12-29T04:33:13;7.6;;;1.2;;
32451;SDS011;45528;52.102;5.242;2022-12-29T04:36:26;6.9;;;1.4;;
32451;SDS011;45528;52.102;5.242;2022-12-29T04:38:02;5.5;;;1.11;;
32451;SDS011;45528;52.102;5.242;2022-12-29T04:39:39;6.2;;;1.2;;
32451;SDS011;45528;52.102;5.242;2022-12-29T04:42:51;6.0;;;1.3;;
32451;SDS011;45528;52.102;5.242;2022-12-29T04:44:28;7.3;;;1.3;;
32451;SDS011;45528;52.102;5.242;2022-12-29T04:46:04;6.7;;;1.5;;
32451;SDS011;45528;52.102;5.242;2022-12-29T04:49:17;5.6;;;1.2;;
32451;SDS011;45528;52.102;5.242;2022-12-29T04:50:53;6.0;;;1.2;;
32451;SDS011;45528;52.102;5.242;2022-12-29T04:52:29;5.3;;;1.2;;
32451;SDS011;45528;52.102;5.242;2022-12-29T04:55:44;9.9;;;1.5;;
32451;SDS011;45528;52.102;5.242;2022-12-29T04:57:24;5.9;;;1.2;;
32451;SDS011;45528;52.102;5.242;2022-12-29T04:59:01;3.9;;;1.0;;
32451;SDS011;45528;52.102;5.242;2022-12-29T05:00:38;6.4;;;1.0;;
32451;SDS011;45528;52.102;5.242;2022-12-29T05:03:51;5.9;;;1.4;;
32451;SDS011;45528;52.102;5.242;2022-12-29T05:05:27;4.8;;;1.2;;
32451;SDS011;45528;52.102;5.242;2022-12-29T05:07:04;5.6;;;1.3;;
32451;SDS011;45528;52.102;5.242;2022-12-29T05:10:18;8.71;;;1.3;;
32451;SDS011;45528;52.102;5.242;2022-12-29T05:11:54;7.5;;;1.3;;
32451;SDS011;45528;52.102;5.242;2022-12-29T05:13:30;6.3;;;1.4;;
32451;SDS011;45528;52.102;5.242;2022-12-29T05:15:07;5.4;;;1.2;;
32451;SDS011;45528;52.102;5.242;2022-12-29T05:18:21;6.4;;;1.3;;
32451;SDS011;45528;52.102;5.242;2022-12-29T05:19:58;9.21;;;1.4;;
32451;SDS011;45528;52.102;5.242;2022-12-29T05:21:35;7.7;;;1.6;;
32451;SDS011;45528;52.102;5.242;2022-12-29T05:24:49;9.81;;;1.4;;
32451;SDS011;45528;52.102;5.242;2022-12-29T05:26:25;7.2;;;1.4;;
32451;SDS011;45528;52.102;5.242;2022-12-29T05:28:01;7.2;;;1.6;;
32451;SDS011;45528;52.102;5.242;2022-12-29T05:31:15;9.1;;;1.4;;
32451;SDS011;45528;52.102;5.242;2022-12-29T05:32:51;8.81;;;1.3;;
32451;SDS011;45528;52.102;5.242;2022-12-29T05:34:28;6.1;;;1.4;;
32451;SDS011;45528;52.102;5.242;2022-12-29T05:36:05;8.4;;;1.6;;
32451;SDS011;45528;52.102;5.242;2022-12-29T05:39:20;7.4;;;1.5;;
32451;SDS011;45528;52.102;5.242;2022-12-29T05:40:57;9.1;;;1.8;;
32451;SDS011;45528;52.102;5.242;2022-12-29T05:42:33;9.81;;;1.7;;
32451;SDS011;45528;52.102;5.242;2022-12-29T05:45:48;14.4;;;1.9;;
32451;SDS011;45528;52.102;5.242;2022-12-29T05:49:00;12.5;;;1.8;;
32451;SDS011;45528;52.102;5.242;2022-12-29T05:50:37;12.5;;;1.9;;
32451;SDS011;45528;52.102;5.242;2022-12-29T05:53:49;9.1;;;1.9;;
32451;SDS011;45528;52.102;5.242;2022-12-29T05:55:26;10.0;;;1.6;;
32451;SDS011;45528;52.102;5.242;2022-12-29T05:57:02;6.4;;;1.4;;
32451;SDS011;45528;52.102;5.242;2022-12-29T06:00:16;9.71;;;1.6;;
32451;SDS011;45528;52.102;5.242;2022-12-29T06:01:52;8.2;;;1.5;;
32451;SDS011;45528;52.102;5.242;2022-12-29T06:03:28;8.71;;;1.6;;
32451;SDS011;45528;52.102;5.242;2022-12-29T06:06:42;10.3;;;1.9;;
32451;SDS011;45528;52.102;5.242;2022-12-29T06:08:19;9.81;;;1.6;;
32451;SDS011;45528;52.102;5.242;2022-12-29T06:09:55;13.3;;;1.8;;
32451;SDS011;45528;52.102;5.242;2022-12-29T06:11:32;10.21;;;1.8;;
32451;SDS011;45528;52.102;5.242;2022-12-29T06:14:45;8.71;;;1.3;;
32451;SDS011;45528;52.102;5.242;2022-12-29T06:16:22;7.9;;;1.6;;
32451;SDS011;45528;52.102;5.242;2022-12-29T06:17:58;11.4;;;1.8;;
32451;SDS011;45528;52.102;5.242;2022-12-29T06:21:12;11.3;;;2.0;;
32451;SDS011;45528;52.102;5.242;2022-12-29T06:22:48;10.9;;;2.0;;
32451;SDS011;45528;52.102;5.242;2022-12-29T06:24:25;13.2;;;2.5;;
32451;SDS011;45528;52.102;5.242;2022-12-29T06:27:40;13.0;;;2.31;;
32451;SDS011;45528;52.102;5.242;2022-12-29T06:29:17;12.2;;;1.9;;
32451;SDS011;45528;52.102;5.242;2022-12-29T06:30:53;11.5;;;2.0;;
32451;SDS011;45528;52.102;5.242;2022-12-29T06:32:29;11.0;;;2.0;;
32451;SDS011;45528;52.102;5.242;2022-12-29T06:35:43;12.8;;;2.1;;
32451;SDS011;45528;52.102;5.242;2022-12-29T06:37:20;10.3;;;2.0;;
32451;SDS011;45528;52.102;5.242;2022-12-29T06:38:56;13.3;;;2.0;;
32451;SDS011;45528;52.102;5.242;2022-12-29T06:42:10;14.4;;;2.0;;
32451;SDS011;45528;52.102;5.242;2022-12-29T06:43:46;15.6;;;2.0;;
32451;SDS011;45528;52.102;5.242;2022-12-29T06:45:22;13.3;;;1.9;;
32451;SDS011;45528;52.102;5.242;2022-12-29T06:48:37;11.6;;;1.6;;
32451;SDS011;45528;52.102;5.242;2022-12-29T06:50:13;12.9;;;2.21;;
32451;SDS011;45528;52.102;5.242;2022-12-29T06:51:50;11.8;;;2.1;;
32451;SDS011;45528;52.102;5.242;2022-12-29T06:53:28;13.9;;;2.1;;
32451;SDS011;45528;52.102;5.242;2022-12-29T06:56:41;10.3;;;1.8;;
32451;SDS011;45528;52.102;5.242;2022-12-29T06:58:20;8.9;;;1.8;;
32451;SDS011;45528;52.102;5.242;2022-12-29T06:59:56;10.9;;;1.7;;
32451;SDS011;45528;52.102;5.242;2022-12-29T07:03:09;13.4;;;2.0;;
32451;SDS011;45528;52.102;5.242;2022-12-29T07:04:45;13.4;;;2.1;;
32451;SDS011;45528;52.102;5.242;2022-12-29T07:06:22;13.7;;;2.31;;
32451;SDS011;45528;52.102;5.242;2022-12-29T07:09:36;11.5;;;1.7;;
32451;SDS011;45528;52.102;5.242;2022-12-29T07:11:12;11.3;;;1.8;;
32451;SDS011;45528;52.102;5.242;2022-12-29T07:12:48;10.7;;;1.7;;
32451;SDS011;45528;52.102;5.242;2022-12-29T07:14:25;12.4;;;2.1;;
32451;SDS011;45528;52.102;5.242;2022-12-29T07:17:41;10.5;;;1.5;;
32451;SDS011;45528;52.102;5.242;2022-12-29T07:19:18;8.9;;;1.5;;
32451;SDS011;45528;52.102;5.242;2022-12-29T07:20:55;7.7;;;1.3;;
32451;SDS011;45528;52.102;5.242;2022-12-29T07:24:08;7.8;;;1.4;;
32451;SDS011;45528;52.102;5.242;2022-12-29T07:25:45;7.4;;;1.5;;
32451;SDS011;45528;52.102;5.242;2022-12-29T07:27:21;11.3;;;1.7;;
32451;SDS011;45528;52.102;5.242;2022-12-29T07:28:59;6.9;;;1.6;;
32451;SDS011;45528;52.102;5.242;2022-12-29T07:32:14;7.9;;;1.6;;
32451;SDS011;45528;52.102;5.242;2022-12-29T07:33:50;9.21;;;1.6;;
32451;SDS011;45528;52.102;5.242;2022-12-29T07:35:27;9.4;;;1.6;;
32451;SDS011;45528;52.102;5.242;2022-12-29T07:38:41;12.5;;;1.7;;
32451;SDS011;45528;52.102;5.242;2022-12-29T07:40:19;10.0;;;1.8;;
32451;SDS011;45528;52.102;5.242;2022-12-29T07:41:56;9.21;;;1.6;;
32451;SDS011;45528;52.102;5.242;2022-12-29T07:45:10;9.0;;;1.6;;
32451;SDS011;45528;52.102;5.242;2022-12-29T07:46:47;7.5;;;1.5;;
32451;SDS011;45528;52.102;5.242;2022-12-29T07:48:23;11.9;;;2.8;;
32451;SDS011;45528;52.102;5.242;2022-12-29T07:49:59;6.2;;;1.9;;
32451;SDS011;45528;52.102;5.242;2022-12-29T07:53:13;12.7;;;2.1;;
32451;SDS011;45528;52.102;5.242;2022-12-29T07:54:51;9.0;;;2.1;;
32451;SDS011;45528;52.102;5.242;2022-12-29T07:56:27;8.81;;;1.6;;
32451;SDS011;45528;52.102;5.242;2022-12-29T07:59:40;12.6;;;2.0;;
32451;SDS011;45528;52.102;5.242;2022-12-29T08:01:16;12.5;;;2.21;;
32451;SDS011;45528;52.102;5.242;2022-12-29T08:02:52;10.9;;;2.1;;
32451;SDS011;45528;52.102;5.242;2022-12-29T08:06:05;11.1;;;2.0;;
32451;SDS011;45528;52.102;5.242;2022-12-29T08:07:44;11.4;;;1.9;;
32451;SDS011;45528;52.102;5.242;2022-12-29T08:09:21;9.5;;;1.7;;
32451;SDS011;45528;52.102;5.242;2022-12-29T08:10:57;11.2;;;2.0;;
32451;SDS011;45528;52.102;5.242;2022-12-29T08:14:10;10.8;;;1.8;;
32451;SDS011;45528;52.102;5.242;2022-12-29T08:15:47;10.4;;;1.9;;
32451;SDS011;45528;52.102;5.242;2022-12-29T08:17:23;10.8;;;1.8;;
32451;SDS011;45528;52.102;5.242;2022-12-29T08:20:35;11.4;;;2.21;;
32451;SDS011;45528;52.102;5.242;2022-12-29T08:22:12;7.6;;;1.9;;
32451;SDS011;45528;52.102;5.242;2022-12-29T08:23:49;11.2;;;2.0;;
32451;SDS011;45528;52.102;5.242;2022-12-29T08:27:01;13.8;;;2.31;;
32451;SDS011;45528;52.102;5.242;2022-12-29T08:28:37;14.5;;;2.21;;
32451;SDS011;45528;52.102;5.242;2022-12-29T08:30:14;13.4;;;2.1;;
32451;SDS011;45528;52.102;5.242;2022-12-29T08:31:51;13.4;;;2.4;;
32451;SDS011;45528;52.102;5.242;2022-12-29T08:35:04;17.2;;;2.4;;
32451;SDS011;45528;52.102;5.242;2022-12-29T08:36:41;15.7;;;2.6;;
32451;SDS011;45528;52.102;5.242;2022-12-29T08:38:18;11.3;;;2.4;;
32451;SDS011;45528;52.102;5.242;2022-12-29T08:41:31;10.21;;;2.0;;
32451;SDS011;45528;52.102;5.242;2022-12-29T08:43:07;14.3;;;2.5;;
32451;SDS011;45528;52.102;5.242;2022-12-29T08:44:43;11.6;;;2.31;;
32451;SDS011;45528;52.102;5.242;2022-12-29T08:47:57;11.7;;;2.0;;
32451;SDS011;45528;52.102;5.242;2022-12-29T08:49:33;11.7;;;2.0;;
32451;SDS011;45528;52.102;5.242;2022-12-29T08:51:09;12.4;;;2.4;;
32451;SDS011;45528;52.102;5.242;2022-12-29T08:52:45;13.8;;;2.4;;
32451;SDS011;45528;52.102;5.242;2022-12-29T08:55:59;11.7;;;2.31;;
32451;SDS011;45528;52.102;5.242;2022-12-29T08:57:36;14.1;;;2.5;;
32451;SDS011;45528;52.102;5.242;2022-12-29T08:59:12;10.8;;;2.21;;
32451;SDS011;45528;52.102;5.242;2022-12-29T09:02:27;13.7;;;2.8;;
32451;SDS011;45528;52.102;5.242;2022-12-29T09:04:04;18.11;;;3.8;;
32451;SDS011;45528;52.102;5.242;2022-12-29T09:05:40;13.3;;;2.7;;
32451;SDS011;45528;52.102;5.242;2022-12-29T09:07:16;13.3;;;2.21;;
32451;SDS011;45528;52.102;5.242;2022-12-29T09:10:29;10.3;;;1.9;;
32451;SDS011;45528;52.102;5.242;2022-12-29T09:12:07;12.6;;;2.21;;
32451;SDS011;45528;52.102;5.242;2022-12-29T09:13:43;14.2;;;2.1;;
32451;SDS011;45528;52.102;5.242;2022-12-29T09:16:56;14.7;;;2.4;;
32451;SDS011;45528;52.102;5.242;2022-12-29T09:18:32;9.9;;;2.0;;
32451;SDS011;45528;52.102;5.242;2022-12-29T09:20:10;13.9;;;2.21;;
32451;SDS011;45528;52.102;5.242;2022-12-29T09:23:23;11.1;;;2.1;;
32451;SDS011;45528;52.102;5.242;2022-12-29T09:26:36;13.1;;;2.4;;
32451;SDS011;45528;52.102;5.242;2022-12-29T09:28:12;14.6;;;2.31;;
32451;SDS011;45528;52.102;5.242;2022-12-29T09:31:25;11.0;;;2.4;;
32451;SDS011;45528;52.102;5.242;2022-12-29T09:33:02;11.7;;;2.0;;
32451;SDS011;45528;52.102;5.242;2022-12-29T09:34:39;13.7;;;2.31;;
32451;SDS011;45528;52.102;5.242;2022-12-29T09:37:52;8.81;;;2.0;;
32451;SDS011;45528;52.102;5.242;2022-12-29T09:39:28;12.7;;;1.9;;
32451;SDS011;45528;52.102;5.242;2022-12-29T09:41:05;10.3;;;1.8;;
32451;SDS011;45528;52.102;5.242;2022-12-29T09:44:48;12.2;;;1.9;;
32451;SDS011;45528;52.102;5.242;2022-12-29T09:46:37;11.4;;;2.1;;
32451;SDS011;45528;52.102;5.242;2022-12-29T09:48:17;10.8;;;1.8;;
32451;SDS011;45528;52.102;5.242;2022-12-29T09:50:00;10.1;;;1.9;;
32451;SDS011;45528;52.102;5.242;2022-12-29T09:51:41;9.71;;;1.7;;
32451;SDS011;45528;52.102;5.242;2022-12-29T09:53:24;11.5;;;1.8;;
32451;SDS011;45528;52.102;5.242;2022-12-29T09:58:30;9.31;;;1.9;;
32451;SDS011;45528;52.102;5.242;2022-12-29T10:01:53;11.5;;;1.9;;
32451;SDS011;45528;52.102;5.242;2022-12-29T10:03:37;11.5;;;1.7;;
32451;SDS011;45528;52.102;5.242;2022-12-29T10:05:27;9.6;;;1.8;;
32451;SDS011;45528;52.102;5.242;2022-12-29T10:07:13;11.8;;;1.7;;
32451;SDS011;45528;52.102;5.242;2022-12-29T10:09:01;11.9;;;2.0;;
32451;SDS011;45528;52.102;5.242;2022-12-29T10:10:45;7.8;;;1.8;;
32451;SDS011;45528;52.102;5.242;2022-12-29T10:12:31;10.4;;;1.7;;
32451;SDS011;45528;52.102;5.242;2022-12-29T10:14:29;5.4;;;1.7;;
32451;SDS011;45528;52.102;5.242;2022-12-29T10:18:03;7.4;;;1.3;;
32451;SDS011;45528;52.102;5.242;2022-12-29T10:19:57;6.4;;;1.3;;
32451;SDS011;45528;52.102;5.242;2022-12-29T10:21:56;9.71;;;1.5;;
32451;SDS011;45528;52.102;5.242;2022-12-29T10:23:45;8.6;;;1.6;;
32451;SDS011;45528;52.102;5.242;2022-12-29T10:25:28;9.9;;;1.5;;
32451;SDS011;45528;52.102;5.242;2022-12-29T10:27:10;6.7;;;1.5;;
32451;SDS011;45528;52.102;5.242;2022-12-29T10:30:31;7.0;;;1.7;;
32451;SDS011;45528;52.102;5.242;2022-12-29T10:32:12;10.5;;;1.6;;
32451;SDS011;45528;52.102;5.242;2022-12-29T10:34:06;7.6;;;1.3;;
32451;SDS011;45528;52.102;5.242;2022-12-29T10:37:32;6.6;;;1.4;;
32451;SDS011;45528;52.102;5.242;2022-12-29T10:39:19;8.5;;;1.7;;
32451;SDS011;45528;52.102;5.242;2022-12-29T10:41:05;9.1;;;1.6;;
32451;SDS011;45528;52.102;5.242;2022-12-29T10:42:50;12.5;;;2.1;;
32451;SDS011;45528;52.102;5.242;2022-12-29T10:44:29;7.9;;;1.7;;
32451;SDS011;45528;52.102;5.242;2022-12-29T10:46:08;10.8;;;2.1;;
32451;SDS011;45528;52.102;5.242;2022-12-29T10:47:51;9.9;;;2.0;;
32451;SDS011;45528;52.102;5.242;2022-12-29T10:51:19;13.7;;;2.21;;
32451;SDS011;45528;52.102;5.242;2022-12-29T10:53:02;12.1;;;2.4;;
32451;SDS011;45528;52.102;5.242;2022-12-29T10:54:42;11.0;;;2.6;;
32451;SDS011;45528;52.102;5.242;2022-12-29T10:56:27;14.4;;;2.6;;
32451;SDS011;45528;52.102;5.242;2022-12-29T10:59:50;13.5;;;2.8;;
32451;SDS011;45528;52.102;5.242;2022-12-29T11:01:28;19.0;;;3.3;;
32451;SDS011;45528;52.102;5.242;2022-12-29T11:03:23;13.2;;;2.6;;
32451;SDS011;45528;52.102;5.242;2022-12-29T11:05:22;16.9;;;2.9;;
32451;SDS011;45528;52.102;5.242;2022-12-29T11:07:08;14.2;;;2.8;;
32451;SDS011;45528;52.102;5.242;2022-12-29T11:08:48;13.4;;;2.7;;
32451;SDS011;45528;52.102;5.242;2022-12-29T11:12:18;17.91;;;2.9;;
32451;SDS011;45528;52.102;5.242;2022-12-29T11:13:57;15.9;;;3.4;;
32451;SDS011;45528;52.102;5.242;2022-12-29T11:15:38;14.2;;;2.8;;
32451;SDS011;45528;52.102;5.242;2022-12-29T11:17:17;14.4;;;2.9;;
32451;SDS011;45528;52.102;5.242;2022-12-29T11:20:31;13.1;;;2.8;;
32451;SDS011;45528;52.102;5.242;2022-12-29T11:22:13;18.5;;;3.3;;
32451;SDS011;45528;52.102;5.242;2022-12-29T11:25:34;13.4;;;3.0;;
32451;SDS011;45528;52.102;5.242;2022-12-29T11:30:22;18.41;;;3.3;;
32451;SDS011;45528;52.102;5.242;2022-12-29T11:32:05;17.61;;;3.5;;
32451;SDS011;45528;52.102;5.242;2022-12-29T11:33:47;16.8;;;3.3;;
32451;SDS011;45528;52.102;5.242;2022-12-29T11:37:13;13.6;;;2.8;;
32451;SDS011;45528;52.102;5.242;2022-12-29T11:42:15;29.2;;;10.9;;
32451;SDS011;45528;52.102;5.242;2022-12-29T11:43:56;42.3;;;21.6;;
32451;SDS011;45528;52.102;5.242;2022-12-29T11:45:35;19.0;;;5.0;;
32451;SDS011;45528;52.102;5.242;2022-12-29T11:49:00;15.5;;;3.3;;
32451;SDS011;45528;52.102;5.242;2022-12-29T11:50:39;20.6;;;5.6;;
32451;SDS011;45528;52.102;5.242;2022-12-29T11:52:20;20.41;;;4.0;;
32451;SDS011;45528;52.102;5.242;2022-12-29T11:53:59;22.5;;;3.9;;
32451;SDS011;45528;52.102;5.242;2022-12-29T11:57:16;18.8;;;3.4;;
32451;SDS011;45528;52.102;5.242;2022-12-29T11:58:55;22.6;;;3.7;;
32451;SDS011;45528;52.102;5.242;2022-12-29T12:00:34;20.41;;;3.5;;
32451;SDS011;45528;52.102;5.242;2022-12-29T12:02:22;20.2;;;4.0;;
32451;SDS011;45528;52.102;5.242;2022-12-29T12:04:54;21.7;;;3.8;;
32451;SDS011;45528;52.102;5.242;2022-12-29T12:06:40;24.8;;;4.2;;
32451;SDS011;45528;52.102;5.242;2022-12-29T12:08:34;16.7;;;3.3;;
32451;SDS011;45528;52.102;5.242;2022-12-29T12:11:57;17.3;;;3.5;;
32451;SDS011;45528;52.102;5.242;2022-12-29T12:13:39;22.3;;;3.7;;
32451;SDS011;45528;52.102;5.242;2022-12-29T12:15:25;19.2;;;4.41;;
32451;SDS011;45528;52.102;5.242;2022-12-29T12:17:09;21.8;;;3.5;;
32451;SDS011;45528;52.102;5.242;2022-12-29T12:20:36;17.8;;;3.9;;
32451;SDS011;45528;52.102;5.242;2022-12-29T12:22:19;17.5;;;3.8;;
32451;SDS011;45528;52.102;5.242;2022-12-29T12:24:13;21.0;;;3.5;;
32451;SDS011;45528;52.102;5.242;2022-12-29T12:26:12;22.3;;;3.9;;
32451;SDS011;45528;52.102;5.242;2022-12-29T12:27:56;23.4;;;4.1;;
32451;SDS011;45528;52.102;5.242;2022-12-29T12:29:37;20.2;;;3.7;;
32451;SDS011;45528;52.102;5.242;2022-12-29T12:33:22;22.8;;;4.1;;
32451;SDS011;45528;52.102;5.242;2022-12-29T12:35:05;17.0;;;3.5;;
32451;SDS011;45528;52.102;5.242;2022-12-29T12:36:53;19.5;;;4.0;;
32451;SDS011;45528;52.102;5.242;2022-12-29T12:38:43;18.91;;;3.5;;
32451;SDS011;45528;52.102;5.242;2022-12-29T12:40:34;28.2;;;8.2;;
32451;SDS011;45528;52.102;5.242;2022-12-29T12:42:24;19.5;;;4.3;;
32451;SDS011;45528;52.102;5.242;2022-12-29T12:44:12;19.41;;;3.6;;
32451;SDS011;45528;52.102;5.242;2022-12-29T12:47:56;18.2;;;4.5;;
32451;SDS011;45528;52.102;5.242;2022-12-29T12:49:54;20.9;;;3.5;;
32451;SDS011;45528;52.102;5.242;2022-12-29T12:52:13;19.5;;;3.2;;
32451;SDS011;45528;52.102;5.242;2022-12-29T12:54:15;19.61;;;4.3;;
32451;SDS011;45528;52.102;5.242;2022-12-29T12:56:11;24.8;;;5.8;;
32451;SDS011;45528;52.102;5.242;2022-12-29T12:58:51;20.6;;;4.3;;
32451;SDS011;45528;52.102;5.242;2022-12-29T13:02:29;16.4;;;3.1;;
32451;SDS011;45528;52.102;5.242;2022-12-29T13:04:52;15.8;;;3.3;;
32451;SDS011;45528;52.102;5.242;2022-12-29T13:06:42;19.2;;;3.5;;
32451;SDS011;45528;52.102;5.242;2022-12-29T13:08:42;15.8;;;3.2;;
32451;SDS011;45528;52.102;5.242;2022-12-29T13:10:39;17.3;;;4.41;;
32451;SDS011;45528;52.102;5.242;2022-12-29T13:12:20;17.41;;;3.3;;
32451;SDS011;45528;52.102;5.242;2022-12-29T13:14:12;18.0;;;3.0;;
32451;SDS011;45528;52.102;5.242;2022-12-29T13:16:05;17.11;;;3.4;;
32451;SDS011;45528;52.102;5.242;2022-12-29T13:17:53;14.5;;;3.0;;